createdAt,value
2022-12-01T00:01:26.019Z,18.95
2022-12-01T00:06:47.814Z,16.55
2022-12-01T00:12:09.770Z,17.25
2022-12-01T00:17:31.590Z,16.00
2022-12-01T00:22:53.897Z,15.02
2022-12-01T00:28:15.695Z,18.10
2022-12-01T00:33:38.033Z,17.58
2022-12-01T00:38:59.838Z,16.42
2022-12-01T00:44:21.622Z,18.92
2022-12-01T00:49:44.066Z,16.55
2022-12-01T00:55:06.342Z,16.38
2022-12-01T01:00:28.264Z,18.92
2022-12-01T01:05:50.173Z,16.27
2022-12-01T01:11:12.104Z,18.13
2022-12-01T01:16:34.596Z,16.75
2022-12-01T01:21:56.395Z,17.67
2022-12-01T01:27:18.223Z,18.63
2022-12-01T01:32:40.102Z,16.77
2022-12-01T01:38:01.892Z,18.38
2022-12-01T01:43:41.908Z,17.25
2022-12-01T01:49:09.683Z,17.63
2022-12-01T01:54:36.168Z,19.38
2022-12-01T02:05:26.631Z,17.02
2022-12-01T02:11:19.451Z,21.10
2022-12-01T02:17:00.421Z,18.25
2022-12-01T02:22:35.665Z,19.30
2022-12-01T02:28:06.374Z,20.20
2022-12-01T02:33:53.960Z,19.42
2022-12-01T02:39:33.927Z,18.15
2022-12-01T02:44:57.450Z,18.50
2022-12-01T02:50:22.055Z,18.00
2022-12-01T02:55:48.558Z,19.15
2022-12-01T03:01:43.889Z,17.75
2022-12-01T03:07:14.654Z,18.37
2022-12-01T03:12:51.598Z,18.63
2022-12-01T03:18:43.699Z,17.50
2022-12-01T03:24:17.258Z,17.50
2022-12-01T03:29:43.647Z,18.30
2022-12-01T03:35:13.579Z,19.55
2022-12-01T03:40:39.047Z,19.42
2022-12-01T03:46:13.438Z,19.73
2022-12-01T03:51:56.185Z,17.90
2022-12-01T03:57:25.259Z,19.58
2022-12-01T04:02:47.171Z,20.67
2022-12-01T04:08:09.114Z,21.10
2022-12-01T04:13:30.921Z,19.77
2022-12-01T04:18:52.714Z,20.00
2022-12-01T04:24:15.531Z,20.58
2022-12-01T04:29:37.342Z,18.70
2022-12-01T04:34:59.115Z,20.80
2022-12-01T04:40:20.874Z,18.85
2022-12-01T04:45:42.678Z,21.88
2022-12-01T04:51:06.520Z,20.20
2022-12-01T04:56:28.618Z,21.52
2022-12-01T05:01:50.526Z,20.58
2022-12-01T05:07:12.374Z,19.80
2022-12-01T05:12:34.134Z,21.35
2022-12-01T05:17:55.909Z,19.45
2022-12-01T05:23:17.678Z,18.48
2022-12-01T05:28:40.075Z,15.25
2022-12-01T05:34:01.909Z,17.55
2022-12-01T05:39:23.686Z,18.88
2022-12-01T05:44:45.478Z,17.08
2022-12-01T05:50:08.265Z,17.35
2022-12-01T05:55:30.100Z,19.05
2022-12-01T06:00:51.882Z,22.10
2022-12-01T06:06:13.864Z,16.52
2022-12-01T06:11:35.861Z,16.50
2022-12-01T06:16:57.680Z,15.98
2022-12-01T06:22:19.483Z,16.05
2022-12-01T06:27:41.276Z,18.08
2022-12-01T06:33:03.109Z,17.50
2022-12-01T06:38:24.970Z,18.02
2022-12-01T06:43:46.753Z,18.98
2022-12-01T06:49:12.637Z,17.15
2022-12-01T06:54:34.417Z,15.97
2022-12-01T06:59:56.386Z,14.32
2022-12-01T07:05:18.555Z,16.63
2022-12-01T07:10:40.335Z,16.00
2022-12-01T07:16:03.228Z,16.08
2022-12-01T07:21:25.311Z,16.83
2022-12-01T07:26:47.117Z,17.70
2022-12-01T07:32:08.873Z,18.23
2022-12-01T07:37:30.682Z,20.60
2022-12-01T07:42:52.469Z,19.95
2022-12-01T07:48:14.287Z,16.10
2022-12-01T07:53:36.651Z,19.48
2022-12-01T07:58:58.897Z,18.70
2022-12-01T08:04:20.678Z,19.63
2022-12-01T08:09:42.530Z,20.52
2022-12-01T08:15:04.656Z,18.42
2022-12-01T08:20:26.457Z,20.08
2022-12-01T08:25:48.217Z,17.63
2022-12-01T08:31:13.019Z,17.38
2022-12-01T08:36:35.783Z,18.55
2022-12-01T08:41:57.589Z,20.42
2022-12-01T08:47:19.430Z,19.15
2022-12-01T08:52:41.320Z,21.85
2022-12-01T08:58:03.148Z,22.90
2022-12-01T09:03:25.141Z,21.13
2022-12-01T09:08:47.599Z,24.48
2022-12-01T09:14:10.433Z,21.55
2022-12-01T09:19:32.404Z,22.08
2022-12-01T09:24:54.191Z,25.33
2022-12-01T09:30:16.519Z,25.33
2022-12-01T09:35:38.404Z,29.65
2022-12-01T09:41:04.430Z,23.98
2022-12-01T09:46:32.094Z,39.47
2022-12-01T09:51:55.015Z,27.10
2022-12-01T09:57:23.353Z,28.38
2022-12-01T10:02:57.159Z,29.08
2022-12-01T10:08:26.923Z,23.45
2022-12-01T10:13:49.123Z,27.90
2022-12-01T10:19:25.989Z,23.83
2022-12-01T10:25:01.605Z,25.80
2022-12-01T10:30:24.953Z,29.87
2022-12-01T10:35:46.806Z,28.35
2022-12-01T10:41:14.478Z,30.45
2022-12-01T10:46:53.873Z,35.58
2022-12-01T10:52:38.249Z,35.95
2022-12-01T10:58:09.108Z,36.70
2022-12-01T11:03:34.893Z,44.55
2022-12-01T11:09:01.038Z,38.57
2022-12-01T11:14:30.492Z,44.15
2022-12-01T11:19:52.832Z,43.35
2022-12-01T11:25:21.996Z,43.22
2022-12-01T11:30:43.910Z,40.40
2022-12-01T11:36:11.737Z,40.15
2022-12-01T11:41:39.653Z,37.10
2022-12-01T11:47:23.170Z,33.63
2022-12-01T11:52:47.181Z,39.15
2022-12-01T11:58:09.230Z,35.17
2022-12-01T12:03:46.390Z,40.42
2022-12-01T12:09:27.162Z,42.75
2022-12-01T12:15:19.902Z,35.72
2022-12-01T12:20:56.060Z,39.92
2022-12-01T12:26:25.331Z,42.00
2022-12-01T12:31:56.207Z,47.50
2022-12-01T12:37:23.050Z,41.75
2022-12-01T12:43:02.706Z,35.58
2022-12-01T12:48:57.346Z,33.90
2022-12-01T12:54:36.675Z,26.63
2022-12-01T13:00:15.372Z,25.90
2022-12-01T13:05:55.609Z,23.13
2022-12-01T13:11:23.914Z,29.88
2022-12-01T13:16:49.306Z,19.95
2022-12-01T13:22:13.327Z,16.33
2022-12-01T13:27:40.892Z,18.48
2022-12-01T13:33:05.092Z,18.08
2022-12-01T13:38:34.213Z,16.23
2022-12-01T13:43:55.955Z,14.85
2022-12-01T13:49:43.532Z,14.40
2022-12-01T13:55:08.313Z,16.30
2022-12-01T14:00:32.897Z,14.27
2022-12-01T14:06:05.484Z,16.08
2022-12-01T14:11:29.743Z,14.93
2022-12-01T14:16:54.422Z,18.15
2022-12-01T14:22:39.465Z,14.55
2022-12-01T14:28:03.330Z,24.92
2022-12-01T14:38:47.242Z,14.30
2022-12-01T14:44:30.620Z,14.98
2022-12-01T14:50:03.123Z,14.82
2022-12-01T14:55:40.386Z,15.43
2022-12-01T15:01:11.761Z,13.10
2022-12-01T15:06:35.554Z,15.35
2022-12-01T15:12:03.073Z,17.48
2022-12-01T15:17:32.938Z,15.15
2022-12-01T15:22:55.838Z,12.90
2022-12-01T15:28:29.009Z,16.92
2022-12-01T15:33:53.371Z,16.25
2022-12-01T15:39:36.463Z,17.67
2022-12-01T15:45:00.995Z,17.17
2022-12-01T15:50:46.007Z,20.92
2022-12-01T15:56:10.322Z,17.73
2022-12-01T16:01:32.512Z,24.27
2022-12-01T16:07:03.214Z,21.42
2022-12-01T16:12:27.711Z,24.42
2022-12-01T16:17:51.435Z,25.80
2022-12-01T16:23:23.649Z,25.67
2022-12-01T16:28:45.749Z,22.85
2022-12-01T16:34:44.089Z,26.08
2022-12-01T16:39:57.948Z,28.50
2022-12-01T16:45:20.426Z,27.30
2022-12-01T16:50:42.229Z,24.67
2022-12-01T16:56:04.178Z,26.65
2022-12-01T17:01:26.001Z,24.63
2022-12-01T17:06:47.930Z,23.13
2022-12-01T17:12:09.697Z,30.55
2022-12-01T17:17:31.485Z,24.08
2022-12-01T17:22:53.322Z,24.27
2022-12-01T17:28:15.180Z,25.30
2022-12-01T17:33:37.000Z,25.10
2022-12-01T17:38:58.909Z,26.85
2022-12-01T17:44:21.083Z,27.60
2022-12-01T17:49:42.854Z,32.42
2022-12-01T17:55:04.974Z,31.45
2022-12-01T18:00:26.800Z,30.00
2022-12-01T18:05:56.279Z,28.48
2022-12-01T18:11:18.084Z,27.73
2022-12-01T18:16:39.878Z,29.42
2022-12-01T18:22:01.644Z,32.55
2022-12-01T18:27:23.523Z,34.17
2022-12-01T18:32:45.341Z,32.85
2022-12-01T18:38:07.145Z,33.25
2022-12-01T18:43:31.169Z,27.35
2022-12-01T18:48:55.731Z,30.48
2022-12-01T18:54:17.542Z,29.75
2022-12-01T18:59:39.307Z,31.35
2022-12-01T19:05:01.097Z,30.92
2022-12-01T19:10:23.441Z,35.75
2022-12-01T19:15:45.266Z,31.48
2022-12-01T19:21:09.430Z,31.42
2022-12-01T19:26:31.255Z,34.05
2022-12-01T19:31:53.169Z,35.85
2022-12-01T19:37:15.042Z,37.03
2022-12-01T19:42:36.803Z,38.05
2022-12-01T19:47:58.603Z,33.92
2022-12-01T19:53:20.370Z,34.47
2022-12-01T19:58:42.217Z,37.20
2022-12-01T20:04:05.358Z,34.25
2022-12-01T20:09:27.132Z,33.47
2022-12-01T20:14:49.380Z,35.63
2022-12-01T20:20:12.064Z,34.65
2022-12-01T20:25:34.200Z,36.38
2022-12-01T20:30:56.243Z,37.55
2022-12-01T20:36:18.421Z,34.95
2022-12-01T20:41:40.554Z,37.70
2022-12-01T20:47:02.420Z,35.15
2022-12-01T20:52:24.215Z,35.80
2022-12-01T20:57:46.343Z,36.58
2022-12-01T21:03:08.222Z,30.77
2022-12-01T21:08:30.088Z,35.13
2022-12-01T21:13:51.874Z,32.28
2022-12-01T21:19:21.074Z,37.53
2022-12-01T21:24:44.218Z,35.28
2022-12-01T21:30:15.773Z,38.15
2022-12-01T21:35:37.527Z,36.95
2022-12-01T21:40:59.412Z,36.08
2022-12-01T21:46:21.418Z,32.17
2022-12-01T21:51:43.730Z,34.90
2022-12-01T21:57:24.627Z,35.85
2022-12-01T22:02:51.911Z,33.83
2022-12-01T22:08:13.742Z,30.92
2022-12-01T22:13:44.753Z,32.40
2022-12-01T22:19:15.378Z,35.70
2022-12-01T22:24:46.673Z,33.88
2022-12-01T22:30:08.424Z,36.17
2022-12-01T22:35:38.909Z,33.72
2022-12-01T22:41:09.197Z,33.20
2022-12-01T22:46:38.017Z,31.73
2022-12-01T22:52:14.115Z,29.50
2022-12-01T22:57:35.964Z,28.63
2022-12-01T23:02:58.935Z,33.90
2022-12-01T23:08:22.619Z,30.27
2022-12-01T23:13:44.452Z,28.63
2022-12-01T23:19:06.237Z,31.25
2022-12-01T23:24:32.406Z,28.27
2022-12-01T23:29:55.655Z,31.65
2022-12-01T23:35:18.507Z,29.35
2022-12-01T23:40:40.319Z,25.98
2022-12-01T23:46:11.783Z,21.73
2022-12-01T23:51:47.297Z,23.00
2022-12-01T23:57:20.498Z,27.77
